sensor_id;sensor_type;location;lat;lon;timestamp;pressure;altitude;pressure_sealevel;temperature;humidity
68301;BME280;55146;47.468;18.806;2023-03-01T00:01:13;101086.25;;;5.53;67.50
68301;BME280;55146;47.468;18.806;2023-03-01T00:03:39;101088.75;;;5.55;67.30
68301;BME280;55146;47.468;18.806;2023-03-01T00:06:05;101085.41;;;5.53;67.56
68301;BME280;55146;47.468;18.806;2023-03-01T00:08:31;101096.31;;;5.53;67.05
68301;BME280;55146;47.468;18.806;2023-03-01T00:11:14;101092.97;;;5.51;67.42
68301;BME280;55146;47.468;18.806;2023-03-01T00:13:40;101091.53;;;5.48;67.46
68301;BME280;55146;47.468;18.806;2023-03-01T00:16:09;101093.41;;;5.48;67.29
68301;BME280;55146;47.468;18.806;2023-03-01T00:18:34;101091.28;;;5.50;66.64
68301;BME280;55146;47.468;18.806;2023-03-01T00:21:00;101093.78;;;5.51;66.82
68301;BME280;55146;47.468;18.806;2023-03-01T00:23:26;101097.56;;;5.50;67.14
68301;BME280;55146;47.468;18.806;2023-03-01T00:25:51;101093.16;;;5.49;66.29
68301;BME280;55146;47.468;18.806;2023-03-01T00:28:17;101099.47;;;5.50;66.41
68301;BME280;55146;47.468;18.806;2023-03-01T00:30:43;101100.75;;;5.47;66.36
68301;BME280;55146;47.468;18.806;2023-03-01T00:33:08;101105.78;;;5.44;66.37
68301;BME280;55146;47.468;18.806;2023-03-01T00:35:34;101098.25;;;5.39;66.75
68301;BME280;55146;47.468;18.806;2023-03-01T00:38:00;101103.50;;;5.41;66.92
68301;BME280;55146;47.468;18.806;2023-03-01T00:40:27;101089.88;;;5.41;67.32
68301;BME280;55146;47.468;18.806;2023-03-01T00:42:53;101100.56;;;5.42;67.72
68301;BME280;55146;47.468;18.806;2023-03-01T00:45:19;101103.72;;;5.39;67.78
68301;BME280;55146;47.468;18.806;2023-03-01T00:47:44;101104.56;;;5.40;67.62
68301;BME280;55146;47.468;18.806;2023-03-01T00:50:11;101096.16;;;5.41;67.69
68301;BME280;55146;47.468;18.806;2023-03-01T00:52:36;101093.81;;;5.45;67.78
68301;BME280;55146;47.468;18.806;2023-03-01T00:55:02;101091.94;;;5.45;68.19
68301;BME280;55146;47.468;18.806;2023-03-01T00:57:28;101091.72;;;5.47;68.71
68301;BME280;55146;47.468;18.806;2023-03-01T00:59:53;101085.44;;;5.46;69.46
68301;BME280;55146;47.468;18.806;2023-03-01T01:02:19;101091.28;;;5.50;69.97
68301;BME280;55146;47.468;18.806;2023-03-01T01:04:45;101082.03;;;5.51;70.65
68301;BME280;55146;47.468;18.806;2023-03-01T01:07:11;101079.09;;;5.52;70.98
68301;BME280;55146;47.468;18.806;2023-03-01T01:09:36;101079.50;;;5.56;71.61
68301;BME280;55146;47.468;18.806;2023-03-01T01:12:02;101077.41;;;5.51;72.15
68301;BME280;55146;47.468;18.806;2023-03-01T01:14:28;101082.88;;;5.51;72.26
68301;BME280;55146;47.468;18.806;2023-03-01T01:16:54;101080.16;;;5.51;72.24
68301;BME280;55146;47.468;18.806;2023-03-01T01:19:19;101072.59;;;5.53;72.23
68301;BME280;55146;47.468;18.806;2023-03-01T01:21:45;101069.88;;;5.53;72.50
68301;BME280;55146;47.468;18.806;2023-03-01T01:24:11;101064.41;;;5.53;72.39
68301;BME280;55146;47.468;18.806;2023-03-01T01:26:37;101064.41;;;5.53;72.34
68301;BME280;55146;47.468;18.806;2023-03-01T01:29:04;101055.59;;;5.51;72.59
68301;BME280;55146;47.468;18.806;2023-03-01T01:31:30;101058.53;;;5.50;72.30
68301;BME280;55146;47.468;18.806;2023-03-01T01:33:57;101059.63;;;5.49;71.80
68301;BME280;55146;47.468;18.806;2023-03-01T01:36:23;101053.31;;;5.48;72.16
68301;BME280;55146;47.468;18.806;2023-03-01T01:38:49;101056.25;;;5.47;71.79
68301;BME280;55146;47.468;18.806;2023-03-01T01:41:14;101059.19;;;5.45;71.16
68301;BME280;55146;47.468;18.806;2023-03-01T01:43:45;101053.72;;;5.45;71.41
68301;BME280;55146;47.468;18.806;2023-03-01T01:49:00;101045.38;;;5.40;70.61
68301;BME280;55146;47.468;18.806;2023-03-01T01:51:34;101047.47;;;5.38;70.42
68301;BME280;55146;47.468;18.806;2023-03-01T01:54:29;101036.34;;;5.40;69.30
68301;BME280;55146;47.468;18.806;2023-03-01T01:56:59;101040.78;;;5.34;69.72
68301;BME280;55146;47.468;18.806;2023-03-01T01:59:28;101041.84;;;5.33;68.77
68301;BME280;55146;47.468;18.806;2023-03-01T02:01:55;101034.69;;;5.32;68.92
68301;BME280;55146;47.468;18.806;2023-03-01T02:04:21;101037.41;;;5.32;68.79
68301;BME280;55146;47.468;18.806;2023-03-01T02:07:09;101025.25;;;5.35;69.09
68301;BME280;55146;47.468;18.806;2023-03-01T02:09:36;101026.31;;;5.34;69.58
68301;BME280;55146;47.468;18.806;2023-03-01T02:12:02;101023.16;;;5.37;69.38
68301;BME280;55146;47.468;18.806;2023-03-01T02:14:29;101023.16;;;5.37;69.01
68301;BME280;55146;47.468;18.806;2023-03-01T02:16:54;101017.25;;;5.40;69.31
68301;BME280;55146;47.468;18.806;2023-03-01T02:20:04;101021.00;;;5.45;69.19
68301;BME280;55146;47.468;18.806;2023-03-01T02:22:34;101024.59;;;5.39;68.75
68301;BME280;55146;47.468;18.806;2023-03-01T02:30:34;101024.41;;;5.34;70.02
68301;BME280;55146;47.468;18.806;2023-03-01T02:33:03;101019.00;;;5.27;70.75
68301;BME280;55146;47.468;18.806;2023-03-01T02:35:37;101018.78;;;5.29;70.99
68301;BME280;55146;47.468;18.806;2023-03-01T02:38:05;101008.06;;;5.27;70.62
68301;BME280;55146;47.468;18.806;2023-03-01T02:40:33;101011.50;;;5.16;72.14
68301;BME280;55146;47.468;18.806;2023-03-01T02:42:59;101012.94;;;5.19;72.10
68301;BME280;55146;47.468;18.806;2023-03-01T02:45:26;101009.16;;;5.20;71.87
68301;BME280;55146;47.468;18.806;2023-03-01T02:47:56;101008.94;;;5.21;71.37
68301;BME280;55146;47.468;18.806;2023-03-01T02:50:33;101003.69;;;5.20;72.37
68301;BME280;55146;47.468;18.806;2023-03-01T02:53:19;100998.25;;;5.20;72.79
68301;BME280;55146;47.468;18.806;2023-03-01T02:55:48;101000.59;;;5.16;72.80
68301;BME280;55146;47.468;18.806;2023-03-01T02:58:14;100998.91;;;5.15;73.14
68301;BME280;55146;47.468;18.806;2023-03-01T03:00:42;100991.78;;;5.14;73.34
68301;BME280;55146;47.468;18.806;2023-03-01T03:03:14;100993.88;;;5.12;73.52
68301;BME280;55146;47.468;18.806;2023-03-01T03:05:40;100990.34;;;5.12;73.38
68301;BME280;55146;47.468;18.806;2023-03-01T03:08:05;100988.69;;;5.04;73.28
68301;BME280;55146;47.468;18.806;2023-03-01T03:10:36;100991.41;;;5.04;73.16
68301;BME280;55146;47.468;18.806;2023-03-01T03:13:07;100993.72;;;5.01;73.88
68301;BME280;55146;47.468;18.806;2023-03-01T03:15:33;100992.66;;;5.02;73.90
68301;BME280;55146;47.468;18.806;2023-03-01T03:18:02;100990.78;;;5.02;74.63
68301;BME280;55146;47.468;18.806;2023-03-01T03:20:28;100988.25;;;5.01;74.21
68301;BME280;55146;47.468;18.806;2023-03-01T03:22:56;100978.63;;;4.98;74.37
68301;BME280;55146;47.468;18.806;2023-03-01T03:25:22;100983.47;;;4.96;74.70
68301;BME280;55146;47.468;18.806;2023-03-01T03:27:49;100977.81;;;4.98;74.56
68301;BME280;55146;47.468;18.806;2023-03-01T03:30:23;100974.25;;;4.91;73.86
68301;BME280;55146;47.468;18.806;2023-03-01T03:32:48;100976.56;;;4.94;73.12
68301;BME280;55146;47.468;18.806;2023-03-01T03:35:28;100973.41;;;4.97;73.56
68301;BME280;55146;47.468;18.806;2023-03-01T03:38:03;100973.38;;;5.03;73.27
68301;BME280;55146;47.468;18.806;2023-03-01T03:42:59;100974.22;;;5.04;74.01
68301;BME280;55146;47.468;18.806;2023-03-01T03:45:24;100971.88;;;5.07;74.33
68301;BME280;55146;47.468;18.806;2023-03-01T03:47:50;100978.19;;;5.01;74.29
68301;BME280;55146;47.468;18.806;2023-03-01T03:50:17;100980.91;;;5.01;74.29
68301;BME280;55146;47.468;18.806;2023-03-01T03:52:43;100981.56;;;5.03;74.39
68301;BME280;55146;47.468;18.806;2023-03-01T03:55:10;100979.87;;;5.02;74.73
68301;BME280;55146;47.468;18.806;2023-03-01T03:57:42;100978.81;;;5.03;74.87
68301;BME280;55146;47.468;18.806;2023-03-01T04:00:11;100976.94;;;5.04;74.87
68301;BME280;55146;47.468;18.806;2023-03-01T04:02:40;100974.22;;;5.04;75.10
68301;BME280;55146;47.468;18.806;2023-03-01T04:05:06;100969.59;;;5.04;75.09
68301;BME280;55146;47.468;18.806;2023-03-01T04:07:34;100972.13;;;5.06;75.06
68301;BME280;55146;47.468;18.806;2023-03-01T04:09:59;100976.72;;;5.05;75.47
68301;BME280;55146;47.468;18.806;2023-03-01T04:12:24;100970.66;;;5.03;75.85
68301;BME280;55146;47.468;18.806;2023-03-01T04:14:50;100973.38;;;5.03;75.70
68301;BME280;55146;47.468;18.806;2023-03-01T04:17:15;100970.25;;;5.00;75.62
68301;BME280;55146;47.468;18.806;2023-03-01T04:19:40;100975.25;;;5.03;75.58
68301;BME280;55146;47.468;18.806;2023-03-01T04:22:09;100968.13;;;5.02;75.66
68301;BME280;55146;47.468;18.806;2023-03-01T04:24:36;100964.34;;;5.03;75.46
68301;BME280;55146;47.468;18.806;2023-03-01T04:27:02;100967.47;;;5.06;75.38
68301;BME280;55146;47.468;18.806;2023-03-01T04:29:27;100974.84;;;5.06;75.20
68301;BME280;55146;47.468;18.806;2023-03-01T04:31:53;100978.44;;;5.00;74.99
68301;BME280;55146;47.468;18.806;2023-03-01T04:34:19;100971.06;;;5.00;75.01
68301;BME280;55146;47.468;18.806;2023-03-01T04:36:44;100974.62;;;5.01;74.89
68301;BME280;55146;47.468;18.806;2023-03-01T04:39:09;100979.47;;;4.99;75.05
68301;BME280;55146;47.468;18.806;2023-03-01T04:41:39;100982.41;;;4.97;75.19
68301;BME280;55146;47.468;18.806;2023-03-01T04:44:05;100985.34;;;4.96;75.44
68301;BME280;55146;47.468;18.806;2023-03-01T04:46:31;100983.88;;;5.00;75.43
68301;BME280;55146;47.468;18.806;2023-03-01T04:48:56;100982.81;;;5.01;75.33
68301;BME280;55146;47.468;18.806;2023-03-01T04:51:22;100970.25;;;5.00;75.51
68301;BME280;55146;47.468;18.806;2023-03-01T04:53:47;100962.87;;;5.00;75.52
68301;BME280;55146;47.468;18.806;2023-03-01T04:56:14;100964.56;;;5.01;75.44
68301;BME280;55146;47.468;18.806;2023-03-01T04:58:39;100967.75;;;4.98;75.17
68301;BME280;55146;47.468;18.806;2023-03-01T05:01:18;100966.06;;;4.97;75.17
68301;BME280;55146;47.468;18.806;2023-03-01T05:03:51;100961.84;;;4.95;75.22
68301;BME280;55146;47.468;18.806;2023-03-01T05:06:18;100958.28;;;4.94;74.95
68301;BME280;55146;47.468;18.806;2023-03-01T05:08:44;100965.00;;;4.98;74.92
68301;BME280;55146;47.468;18.806;2023-03-01T05:11:10;100965.00;;;4.98;74.51
68301;BME280;55146;47.468;18.806;2023-03-01T05:13:37;100972.75;;;5.01;74.43
68301;BME280;55146;47.468;18.806;2023-03-01T05:16:03;100970.44;;;5.05;74.40
68301;BME280;55146;47.468;18.806;2023-03-01T05:18:31;100971.47;;;5.04;74.58
68301;BME280;55146;47.468;18.806;2023-03-01T05:21:06;100971.91;;;5.01;74.76
68301;BME280;55146;47.468;18.806;2023-03-01T05:23:32;100972.13;;;4.99;74.86
68301;BME280;55146;47.468;18.806;2023-03-01T05:26:00;100967.94;;;4.97;74.77
68301;BME280;55146;47.468;18.806;2023-03-01T05:28:26;100977.16;;;4.96;75.10
68301;BME280;55146;47.468;18.806;2023-03-01T05:30:53;100973.41;;;4.97;75.31
68301;BME280;55146;47.468;18.806;2023-03-01T05:33:19;100976.75;;;4.99;75.14
68301;BME280;55146;47.468;18.806;2023-03-01T05:35:47;100975.28;;;4.96;75.18
68301;BME280;55146;47.468;18.806;2023-03-01T05:38:14;100985.34;;;4.96;75.30
68301;BME280;55146;47.468;18.806;2023-03-01T05:40:44;100973.19;;;4.98;75.52
68301;BME280;55146;47.468;18.806;2023-03-01T05:43:10;100974.62;;;5.01;75.54
68301;BME280;55146;47.468;18.806;2023-03-01T05:45:37;100976.09;;;5.03;75.51
68301;BME280;55146;47.468;18.806;2023-03-01T05:48:04;100978.81;;;5.03;75.71
68301;BME280;55146;47.468;18.806;2023-03-01T05:50:33;100975.25;;;5.03;75.75
68301;BME280;55146;47.468;18.806;2023-03-01T05:52:59;100975.66;;;5.06;75.57
68301;BME280;55146;47.468;18.806;2023-03-01T05:55:25;100974.59;;;5.07;75.46
68301;BME280;55146;47.468;18.806;2023-03-01T05:57:51;100976.91;;;5.10;75.40
68301;BME280;55146;47.468;18.806;2023-03-01T06:00:19;100976.69;;;5.12;75.18
68301;BME280;55146;47.468;18.806;2023-03-01T06:02:45;100971.84;;;5.14;75.12
68301;BME280;55146;47.468;18.806;2023-03-01T06:05:12;100988.00;;;5.15;75.02
68301;BME280;55146;47.468;18.806;2023-03-01T06:07:38;100981.28;;;5.18;74.93
68301;BME280;55146;47.468;18.806;2023-03-01T06:10:05;100981.28;;;5.18;74.20
68301;BME280;55146;47.468;18.806;2023-03-01T06:12:35;100981.69;;;5.21;73.67
68301;BME280;55146;47.468;18.806;2023-03-01T06:15:01;100984.19;;;5.23;73.41
68301;BME280;55146;47.468;18.806;2023-03-01T06:17:33;100982.31;;;5.23;72.65
68301;BME280;55146;47.468;18.806;2023-03-01T06:20:05;100978.28;;;5.26;72.04
68301;BME280;55146;47.468;18.806;2023-03-01T06:22:31;100986.88;;;5.29;71.72
68301;BME280;55146;47.468;18.806;2023-03-01T06:24:57;100990.22;;;5.32;71.34
68301;BME280;55146;47.468;18.806;2023-03-01T06:27:22;100993.19;;;5.30;70.98
68301;BME280;55146;47.468;18.806;2023-03-01T06:29:47;100988.31;;;5.32;71.05
68301;BME280;55146;47.468;18.806;2023-03-01T06:32:14;100995.03;;;5.36;71.30
68301;BME280;55146;47.468;18.806;2023-03-01T06:34:39;101001.09;;;5.38;71.35
68301;BME280;55146;47.468;18.806;2023-03-01T06:37:06;101003.59;;;5.40;71.58
68301;BME280;55146;47.468;18.806;2023-03-01T06:39:32;100999.37;;;5.44;71.50
68301;BME280;55146;47.468;18.806;2023-03-01T06:41:58;101000.84;;;5.46;72.11
68301;BME280;55146;47.468;18.806;2023-03-01T06:44:23;101007.78;;;5.49;72.37
68301;BME280;55146;47.468;18.806;2023-03-01T06:46:49;101007.31;;;5.52;72.86
68301;BME280;55146;47.468;18.806;2023-03-01T06:49:14;101002.66;;;5.59;72.70
68301;BME280;55146;47.468;18.806;2023-03-01T06:51:41;101007.44;;;5.63;72.42
68301;BME280;55146;47.468;18.806;2023-03-01T06:54:07;101002.63;;;5.65;72.51
68301;BME280;55146;47.468;18.806;2023-03-01T06:56:32;101002.16;;;5.68;71.32
68301;BME280;55146;47.468;18.806;2023-03-01T06:58:58;101009.09;;;5.71;70.89
68301;BME280;55146;47.468;18.806;2023-03-01T07:01:24;101006.16;;;5.73;70.29
68301;BME280;55146;47.468;18.806;2023-03-01T07:03:49;101013.88;;;5.76;69.60
68301;BME280;55146;47.468;18.806;2023-03-01T07:06:14;101017.06;;;5.73;68.80
68301;BME280;55146;47.468;18.806;2023-03-01T07:08:40;101012.41;;;5.80;69.53
68301;BME280;55146;47.468;18.806;2023-03-01T07:11:05;101008.16;;;5.90;69.87
68301;BME280;55146;47.468;18.806;2023-03-01T07:13:31;101010.66;;;5.92;68.20
68301;BME280;55146;47.468;18.806;2023-03-01T07:15:56;101014.16;;;5.99;68.10
68301;BME280;55146;47.468;18.806;2023-03-01T07:18:22;101007.88;;;5.98;68.67
68301;BME280;55146;47.468;18.806;2023-03-01T07:20:47;100994.41;;;6.03;69.16
68301;BME280;55146;47.468;18.806;2023-03-01T07:23:13;101012.47;;;6.04;68.42
68301;BME280;55146;47.468;18.806;2023-03-01T07:25:38;101007.00;;;6.04;67.92
68301;BME280;55146;47.468;18.806;2023-03-01T07:28:04;101012.63;;;6.09;67.98
68301;BME280;55146;47.468;18.806;2023-03-01T07:30:29;101006.91;;;6.11;68.29
68301;BME280;55146;47.468;18.806;2023-03-01T07:32:56;101009.28;;;6.07;67.18
68301;BME280;55146;47.468;18.806;2023-03-01T07:35:23;101001.44;;;6.11;67.38
68301;BME280;55146;47.468;18.806;2023-03-01T07:37:49;101000.34;;;6.19;67.64
68301;BME280;55146;47.468;18.806;2023-03-01T07:40:15;100997.66;;;6.12;66.57
68301;BME280;55146;47.468;18.806;2023-03-01T07:42:40;101005.59;;;6.20;65.93
68301;BME280;55146;47.468;18.806;2023-03-01T07:45:07;101006.66;;;6.19;66.46
68301;BME280;55146;47.468;18.806;2023-03-01T07:47:32;101003.53;;;6.16;66.32
68301;BME280;55146;47.468;18.806;2023-03-01T07:49:58;101001.19;;;6.19;67.56
68301;BME280;55146;47.468;18.806;2023-03-01T07:52:23;101005.06;;;6.30;67.63
68301;BME280;55146;47.468;18.806;2023-03-01T07:54:48;100994.91;;;6.37;66.07
68301;BME280;55146;47.468;18.806;2023-03-01T07:57:14;100990.97;;;6.33;66.20
68301;BME280;55146;47.468;18.806;2023-03-01T07:59:39;100992.19;;;6.37;66.26
68301;BME280;55146;47.468;18.806;2023-03-01T08:02:05;100990.44;;;6.42;66.57
68301;BME280;55146;47.468;18.806;2023-03-01T08:04:31;100985.31;;;6.53;66.21
68301;BME280;55146;47.468;18.806;2023-03-01T08:06:58;100992.84;;;6.57;65.68
68301;BME280;55146;47.468;18.806;2023-03-01T08:09:24;100984.94;;;6.67;65.61
68301;BME280;55146;47.468;18.806;2023-03-01T08:11:49;100987.31;;;6.82;64.66
68301;BME280;55146;47.468;18.806;2023-03-01T08:14:15;100991.03;;;6.87;64.38
68301;BME280;55146;47.468;18.806;2023-03-01T08:16:40;100980.56;;;6.84;63.65
68301;BME280;55146;47.468;18.806;2023-03-01T08:19:07;100986.88;;;6.85;64.15
68301;BME280;55146;47.468;18.806;2023-03-01T08:21:33;100986.41;;;6.88;63.85
68301;BME280;55146;47.468;18.806;2023-03-01T08:24:00;100976.84;;;6.97;64.68
68301;BME280;55146;47.468;18.806;2023-03-01T08:26:26;100985.78;;;7.04;64.04
68301;BME280;55146;47.468;18.806;2023-03-01T08:28:51;100984.72;;;7.05;63.29
68301;BME280;55146;47.468;18.806;2023-03-01T08:31:46;100984.25;;;7.08;63.20
68301;BME280;55146;47.468;18.806;2023-03-01T08:34:14;100978.03;;;7.01;62.36
68301;BME280;55146;47.468;18.806;2023-03-01T08:36:42;100980.56;;;7.03;62.97
68301;BME280;55146;47.468;18.806;2023-03-01T08:39:10;100978.84;;;7.20;64.19
68301;BME280;55146;47.468;18.806;2023-03-01T08:41:36;100971.09;;;7.17;62.34
68301;BME280;55146;47.468;18.806;2023-03-01T08:44:01;100969.19;;;7.17;61.90
68301;BME280;55146;47.468;18.806;2023-03-01T08:46:32;100976.81;;;7.15;62.39
68301;BME280;55146;47.468;18.806;2023-03-01T08:48:58;100976.72;;;7.22;62.75
68301;BME280;55146;47.468;18.806;2023-03-01T08:51:24;100974.81;;;7.22;62.11
68301;BME280;55146;47.468;18.806;2023-03-01T08:53:50;100970.41;;;7.21;61.55
68301;BME280;55146;47.468;18.806;2023-03-01T08:56:16;100970.78;;;7.25;61.54
68301;BME280;55146;47.468;18.806;2023-03-01T08:58:44;100966.53;;;7.11;61.56
68301;BME280;55146;47.468;18.806;2023-03-01T09:01:11;100955.37;;;7.12;62.01
68301;BME280;55146;47.468;18.806;2023-03-01T09:03:37;100950.28;;;7.16;62.44
68301;BME280;55146;47.468;18.806;2023-03-01T09:06:04;100942.34;;;7.26;62.70
68301;BME280;55146;47.468;18.806;2023-03-01T09:08:30;100943.50;;;7.48;62.51
68301;BME280;55146;47.468;18.806;2023-03-01T09:10:56;100946.06;;;7.73;61.43
68301;BME280;55146;47.468;18.806;2023-03-01T09:13:22;100942.47;;;7.72;60.42
68301;BME280;55146;47.468;18.806;2023-03-01T09:15:50;100943.72;;;7.77;59.35
68301;BME280;55146;47.468;18.806;2023-03-01T09:18:15;100934.75;;;7.69;59.89
68301;BME280;55146;47.468;18.806;2023-03-01T09:20:41;100934.88;;;7.75;60.34
68301;BME280;55146;47.468;18.806;2023-03-01T09:23:06;100926.91;;;7.85;60.59
68301;BME280;55146;47.468;18.806;2023-03-01T09:25:34;100927.75;;;7.97;59.97
68301;BME280;55146;47.468;18.806;2023-03-01T09:27:59;100920.63;;;8.07;60.58
68301;BME280;55146;47.468;18.806;2023-03-01T09:30:24;100913.47;;;8.18;60.34
68301;BME280;55146;47.468;18.806;2023-03-01T09:32:50;100907.91;;;8.36;60.98
68301;BME280;55146;47.468;18.806;2023-03-01T09:35:15;100915.16;;;8.54;59.89
68301;BME280;55146;47.468;18.806;2023-03-01T09:37:40;100906.53;;;8.74;59.30
68301;BME280;55146;47.468;18.806;2023-03-01T09:40:15;100896.59;;;8.84;58.96
68301;BME280;55146;47.468;18.806;2023-03-01T09:45:44;100890.78;;;9.38;56.87
68301;BME280;55146;47.468;18.806;2023-03-01T09:48:15;100886.66;;;9.85;56.16
68301;BME280;55146;47.468;18.806;2023-03-01T09:50:43;100878.78;;;9.94;55.64
68301;BME280;55146;47.468;18.806;2023-03-01T09:53:18;100879.22;;;10.02;55.87
68301;BME280;55146;47.468;18.806;2023-03-01T09:55:59;100883.78;;;10.13;55.61
68301;BME280;55146;47.468;18.806;2023-03-01T09:58:34;100874.97;;;10.28;53.48
68301;BME280;55146;47.468;18.806;2023-03-01T10:01:18;100879.34;;;10.46;53.82
68301;BME280;55146;47.468;18.806;2023-03-01T10:04:46;100877.19;;;10.31;53.31
68301;BME280;55146;47.468;18.806;2023-03-01T10:06:58;100871.69;;;10.31;53.42
68301;BME280;55146;47.468;18.806;2023-03-01T10:09:30;100869.94;;;10.42;53.00
68301;BME280;55146;47.468;18.806;2023-03-01T10:12:01;100871.06;;;10.46;53.09
68301;BME280;55146;47.468;18.806;2023-03-01T10:17:39;100857.31;;;10.68;53.51
68301;BME280;55146;47.468;18.806;2023-03-01T10:20:49;100851.97;;;10.78;53.79
68301;BME280;55146;47.468;18.806;2023-03-01T10:23:16;100847.81;;;11.02;53.95
68301;BME280;55146;47.468;18.806;2023-03-01T10:28:57;100847.66;;;10.87;53.79
68301;BME280;55146;47.468;18.806;2023-03-01T10:31:41;100837.41;;;11.04;52.87
68301;BME280;55146;47.468;18.806;2023-03-01T10:34:17;100834.34;;;11.06;54.51
68301;BME280;55146;47.468;18.806;2023-03-01T10:36:47;100830.34;;;11.18;52.28
68301;BME280;55146;47.468;18.806;2023-03-01T10:39:18;100829.59;;;11.23;52.42
68301;BME280;55146;47.468;18.806;2023-03-01T10:41:59;100829.66;;;11.28;51.86
68301;BME280;55146;47.468;18.806;2023-03-01T10:44:40;100829.69;;;11.33;50.91
68301;BME280;55146;47.468;18.806;2023-03-01T10:47:16;100832.44;;;11.33;52.21
68301;BME280;55146;47.468;18.806;2023-03-01T10:49:58;100820.13;;;11.41;52.02
68301;BME280;55146;47.468;18.806;2023-03-01T10:52:31;100809.97;;;11.46;51.04
68301;BME280;55146;47.468;18.806;2023-03-01T10:57:41;100805.50;;;11.72;50.62
68301;BME280;55146;47.468;18.806;2023-03-01T11:02:38;100795.44;;;11.93;50.05
68301;BME280;55146;47.468;18.806;2023-03-01T11:07:49;100790.41;;;12.22;50.91
68301;BME280;55146;47.468;18.806;2023-03-01T11:10:29;100786.59;;;12.38;49.95
68301;BME280;55146;47.468;18.806;2023-03-01T11:13:17;100789.41;;;12.48;50.09
68301;BME280;55146;47.468;18.806;2023-03-01T11:15:43;100786.09;;;12.46;49.15
68301;BME280;55146;47.468;18.806;2023-03-01T11:18:23;100786.06;;;12.41;50.18
68301;BME280;55146;47.468;18.806;2023-03-01T11:20:51;100776.66;;;12.37;49.44
68301;BME280;55146;47.468;18.806;2023-03-01T11:23:19;100786.59;;;12.33;51.12
68301;BME280;55146;47.468;18.806;2023-03-01T11:26:07;100778.31;;;12.33;50.39
68301;BME280;55146;47.468;18.806;2023-03-01T11:28:35;100773.56;;;12.28;49.88
68301;BME280;55146;47.468;18.806;2023-03-01T11:36:07;100782.00;;;12.01;48.86
68301;BME280;55146;47.468;18.806;2023-03-01T11:38:38;100775.63;;;11.96;50.01
68301;BME280;55146;47.468;18.806;2023-03-01T11:41:14;100772.78;;;11.86;49.86
68301;BME280;55146;47.468;18.806;2023-03-01T11:43:59;100767.84;;;11.83;49.32
68301;BME280;55146;47.468;18.806;2023-03-01T11:54:53;100772.03;;;10.94;51.19
68301;BME280;55146;47.468;18.806;2023-03-01T12:11:51;100763.81;;;10.24;52.74
68301;BME280;55146;47.468;18.806;2023-03-01T12:15:26;100754.91;;;10.39;52.97
68301;BME280;55146;47.468;18.806;2023-03-01T12:25:41;100732.03;;;10.33;52.46
68301;BME280;55146;47.468;18.806;2023-03-01T12:31:05;100723.00;;;10.38;51.87
68301;BME280;55146;47.468;18.806;2023-03-01T12:47:48;100718.19;;;11.04;50.80
68301;BME280;55146;47.468;18.806;2023-03-01T12:50:24;100710.38;;;10.95;50.68
68301;BME280;55146;47.468;18.806;2023-03-01T12:52:57;100714.56;;;10.98;50.69
68301;BME280;55146;47.468;18.806;2023-03-01T12:55:29;100706.69;;;10.80;51.03
68301;BME280;55146;47.468;18.806;2023-03-01T12:58:04;100716.91;;;10.84;51.72
68301;BME280;55146;47.468;18.806;2023-03-01T13:06:11;100714.00;;;11.01;51.45
68301;BME280;55146;47.468;18.806;2023-03-01T13:08:45;100710.56;;;10.84;51.09
68301;BME280;55146;47.468;18.806;2023-03-01T13:11:21;100711.91;;;10.81;50.83
68301;BME280;55146;47.468;18.806;2023-03-01T13:13:47;100705.37;;;10.92;51.37
68301;BME280;55146;47.468;18.806;2023-03-01T13:16:21;100702.78;;;11.08;51.65
68301;BME280;55146;47.468;18.806;2023-03-01T13:18:48;100684.44;;;11.23;51.55
68301;BME280;55146;47.468;18.806;2023-03-01T13:21:29;100683.25;;;11.46;51.42
68301;BME280;55146;47.468;18.806;2023-03-01T13:23:55;100679.22;;;11.69;48.70
68301;BME280;55146;47.468;18.806;2023-03-01T13:26:21;100691.03;;;11.59;49.21
68301;BME280;55146;47.468;18.806;2023-03-01T13:28:51;100687.75;;;11.67;49.57
68301;BME280;55146;47.468;18.806;2023-03-01T13:33:58;100671.88;;;11.80;51.78
68301;BME280;55146;47.468;18.806;2023-03-01T13:38:57;100664.88;;;12.14;49.64
68301;BME280;55146;47.468;18.806;2023-03-01T13:46:53;100659.00;;;12.00;48.84
68301;BME280;55146;47.468;18.806;2023-03-01T13:49:56;100643.81;;;11.98;49.12
68301;BME280;55146;47.468;18.806;2023-03-01T13:52:42;100643.56;;;11.94;49.13
68301;BME280;55146;47.468;18.806;2023-03-01T13:57:41;100641.84;;;11.83;49.55
68301;BME280;55146;47.468;18.806;2023-03-01T14:00:33;100632.44;;;11.79;49.37
68301;BME280;55146;47.468;18.806;2023-03-01T14:03:00;100644.59;;;11.78;48.80
68301;BME280;55146;47.468;18.806;2023-03-01T14:05:25;100638.50;;;11.76;49.34
68301;BME280;55146;47.468;18.806;2023-03-01T14:07:51;100633.84;;;11.77;49.53
68301;BME280;55146;47.468;18.806;2023-03-01T14:10:17;100630.25;;;11.81;48.90
68301;BME280;55146;47.468;18.806;2023-03-01T14:12:50;100624.44;;;11.72;48.68
68301;BME280;55146;47.468;18.806;2023-03-01T14:15:39;100621.19;;;11.86;48.56
68301;BME280;55146;47.468;18.806;2023-03-01T14:18:26;100613.22;;;11.94;49.38
68301;BME280;55146;47.468;18.806;2023-03-01T14:20:53;100603.59;;;11.97;47.66
68301;BME280;55146;47.468;18.806;2023-03-01T14:23:23;100608.28;;;11.96;48.00
68301;BME280;55146;47.468;18.806;2023-03-01T14:25:51;100601.09;;;12.00;50.23
68301;BME280;55146;47.468;18.806;2023-03-01T14:30:48;100599.44;;;11.99;47.83
68301;BME280;55146;47.468;18.806;2023-03-01T14:33:21;100598.84;;;11.82;48.52
68301;BME280;55146;47.468;18.806;2023-03-01T14:36:08;100592.78;;;11.85;49.09
68301;BME280;55146;47.468;18.806;2023-03-01T14:38:42;100587.00;;;11.92;49.00
68301;BME280;55146;47.468;18.806;2023-03-01T14:41:11;100582.03;;;11.84;50.59